Quenames — WTU9038 — position and weather

sailwx.info

Track history (hours):
 
Tides and Currents Weather Stations Pressure Air Temp Water Temp Dewpoint Dewpoint Depression Visibility Wind Speed Wind Dir Waves Ship Positions

Quenames

Owner: BOSTON MARINE TRANSPORT INC, EAST BOSTON, MA. More information available from US FCC via Universal Licensing System and Coast Guard Vessel Documentation Center.

Last reported at 2017-Jan-20 17:08 UTC. Time now 2017-Jan-20 20:11 UTC.
Position N 40°33' W 074°15'.

Length 23 m; draft 3 m.

Type: Tug. MMSI: 367022790.

Date/timePositionNaut miles runAvg speedWind from/ knotsBaromVisibWave heightAir tempDewpointWater temp
2017-Jan-20 17:08N 40°33' W 074°15'0 0.0
2017-Jan-20 12:33N 40°33' W 074°15'0 0.1
2017-Jan-20 11:33N 40°33' W 074°15'0 0.0
2017-Jan-20 10:32N 40°33' W 074°15'0 0.0
2017-Jan-20 09:32N 40°33' W 074°15'0 0.0
2017-Jan-20 08:33N 40°33' W 074°15'0 0.0
2017-Jan-20 07:33N 40°33' W 074°15'0 0.0
2017-Jan-20 06:32N 40°33' W 074°15'0 0.0
2017-Jan-20 05:33N 40°33' W 074°15'0 0.0
2017-Jan-20 04:32N 40°33' W 074°15'0 0.0
2017-Jan-20 03:33N 40°33' W 074°15'0 0.0
2017-Jan-20 02:33N 40°33' W 074°15'5 4.9
2017-Jan-20 01:33N 40°37' W 074°12'7 7.3
2017-Jan-20 00:34N 40°40' W 074°03'1010.0
2017-Jan-19 23:33N 40°48' W 073°55'7 0.3
2017-Jan-19 03:24N 40°50' W 073°46'5 6.3
2017-Jan-19 02:33N 40°48' W 073°52'5 5.5
2017-Jan-19 01:33N 40°45' W 073°58'5 5.0
2017-Jan-19 00:34N 40°41' W 074°02'6 6.0
2017-Jan-18 23:34N 40°39' W 074°10'5 4.6
2017-Jan-18 22:33N 40°35' W 074°13'2 2.5
2017-Jan-18 21:33N 40°33' W 074°15'0 0.0
2017-Jan-18 17:21N 40°33' W 074°15'0 0.0
2017-Jan-18 10:33N 40°33' W 074°15'0 0.0
2017-Jan-18 09:33N 40°33' W 074°15'0 0.0
2017-Jan-18 08:33N 40°33' W 074°15'0 0.0
2017-Jan-18 07:33N 40°33' W 074°15'0 0.0
2017-Jan-18 06:33N 40°33' W 074°15'0 0.0
2017-Jan-18 05:33N 40°33' W 074°15'1 0.7
2017-Jan-18 04:12N 40°32' W 074°15'1 1.1
2017-Jan-18 03:19N 40°33' W 074°15'0 0.0
2017-Jan-18 00:33N 40°33' W 074°15'0 0.0
2017-Jan-17 23:32N 40°33' W 074°15'0 0.0
2017-Jan-17 13:28N 40°33' W 074°15'0 0.0
2017-Jan-17 12:33N 40°33' W 074°15'0 0.0
2017-Jan-17 11:29N 40°33' W 074°15'0 0.0
2017-Jan-17 10:28N 40°33' W 074°15'0 0.0
2017-Jan-17 09:31N 40°33' W 074°15'0 0.4
2017-Jan-17 08:27N 40°33' W 074°15'7 7.4
2017-Jan-17 07:34N 40°39' W 074°11'7 6.9
2017-Jan-17 06:34N 40°40' W 074°03'8 7.8
2017-Jan-17 05:34N 40°48' W 073°59'7 7.3
2017-Jan-17 04:34N 40°54' W 073°55'6 0.4
2017-Jan-16 12:27N 41°00' W 073°53'5 5.1
2017-Jan-16 11:33N 40°56' W 073°55'4 4.0
2017-Jan-16 10:34N 40°52' W 073°56'4 3.5
2017-Jan-16 09:34N 40°49' W 073°58'4 3.9
2017-Jan-16 08:34N 40°45' W 074°01'5 4.9
2017-Jan-16 07:34N 40°41' W 074°03'6 6.2
2017-Jan-16 06:33N 40°39' W 074°10'6 5.3
2017-Jan-16 05:28N 40°33' W 074°13'1 1.4
2017-Jan-16 04:33N 40°33' W 074°15'0 0.0
2017-Jan-15 17:33N 40°33' W 074°15'4 2.9
2017-Jan-15 16:10N 40°36' W 074°12'3 5.1
2017-Jan-15 15:32N 40°39' W 074°09'2 2.2
2017-Jan-15 14:33N 40°39' W 074°07'0 0.0
2017-Jan-15 13:33N 40°39' W 074°07'0 0.0
2017-Jan-15 12:33N 40°39' W 074°07'0 0.0
2017-Jan-15 11:33N 40°39' W 074°07'0 0.0
2017-Jan-15 10:33N 40°39' W 074°07'0 0.0
2017-Jan-15 09:33N 40°39' W 074°07'0 0.0
2017-Jan-15 08:33N 40°39' W 074°07'0 0.0
2017-Jan-15 07:33N 40°39' W 074°07'0 0.0
2017-Jan-15 06:33N 40°39' W 074°07'0 0.0
2017-Jan-15 05:33N 40°39' W 074°07'0 0.0
2017-Jan-15 04:33N 40°39' W 074°07'0 0.0
2017-Jan-15 03:33N 40°39' W 074°07'3 3.0
2017-Jan-15 02:33N 40°39' W 074°10'5 5.0
2017-Jan-15 01:31N 40°34' W 074°13'2 0.2
2017-Jan-14 14:33N 40°32' W 074°15'1 0.5
2017-Jan-14 13:32N 40°33' W 074°15'0 0.0
2017-Jan-14 12:29N 40°33' W 074°15'0 0.0
2017-Jan-14 11:33N 40°33' W 074°15'3 3.5
2017-Jan-14 10:33N 40°36' W 074°12'5 5.2
2017-Jan-14 09:33N 40°39' W 074°07'9 8.8
2017-Jan-14 08:33N 40°45' W 073°58'8 8.3
2017-Jan-14 07:33N 40°48' W 073°48'5 0.2
2017-Jan-13 04:06N 40°52' W 073°44'4 6.3
2017-Jan-13 03:29N 40°49' W 073°47'5 5.6
2017-Jan-13 02:30N 40°48' W 073°54'6 6.5
2017-Jan-13 01:33N 40°43' W 073°58'5 5.3
2017-Jan-13 00:33N 40°39' W 074°03'0 0.4
2017-Jan-12 23:33N 40°40' W 074°03'1 1.3
2017-Jan-12 22:33N 40°40' W 074°02'1 1.2
2017-Jan-12 21:33N 40°40' W 074°00'0 0.0
2017-Jan-12 20:33N 40°40' W 074°00'0 0.0
2017-Jan-12 19:33N 40°40' W 074°00'6 6.4
2017-Jan-12 18:33N 40°39' W 074°08'3 2.8
2017-Jan-12 17:33N 40°38' W 074°12'0 0.0
2017-Jan-12 16:33N 40°38' W 074°12'0 0.0
2017-Jan-12 15:33N 40°38' W 074°12'0 0.0
2017-Jan-12 14:33N 40°38' W 074°12'4 4.2
2017-Jan-12 13:32N 40°39' W 074°06'5 4.6
2017-Jan-12 12:33N 40°40' W 074°00'2 2.2
2017-Jan-12 11:33N 40°39' W 074°03'4 3.9
2017-Jan-12 10:33N 40°39' W 074°08'4 3.9
2017-Jan-12 09:30N 40°36' W 074°12'4 3.8
2017-Jan-12 08:31N 40°33' W 074°15'0 0.4
2017-Jan-12 07:33N 40°33' W 074°15'0 0.0
2017-Jan-12 06:33N 40°33' W 074°15'0 0.0
2017-Jan-12 05:33N 40°33' W 074°15'0 0.0
2017-Jan-12 04:33N 40°33' W 074°15'0 0.0
2017-Jan-12 03:33N 40°33' W 074°15'0 0.0
2017-Jan-12 02:33N 40°33' W 074°15'0 0.0
2017-Jan-12 01:33N 40°33' W 074°15'0 0.0
2017-Jan-11 16:31N 40°33' W 074°15'4 3.3
2017-Jan-11 15:14N 40°36' W 074°12'4 6.0
2017-Jan-11 14:33N 40°39' W 074°08'5 5.0
2017-Jan-11 13:33N 40°41' W 074°02'6 6.1
2017-Jan-11 12:33N 40°46' W 073°57'4 4.0
2017-Jan-11 11:33N 40°48' W 073°53'5 4.4
2017-Jan-11 10:30N 40°49' W 073°47'4 3.8
2017-Jan-11 09:29N 40°52' W 073°44'  
Track history (hours):
 
Tides and Currents Weather Stations Pressure Air Temp Water Temp Dewpoint Dewpoint Depression Visibility Wind Speed Wind Dir Waves Ship Positions

Quenames

Owner: BOSTON MARINE TRANSPORT INC, EAST BOSTON, MA. More information available from US FCC via Universal Licensing System and Coast Guard Vessel Documentation Center.

Last reported at 2017-Jan-20 17:08 UTC. Time now 2017-Jan-20 20:11 UTC.
Position N 40°33' W 074°15'.

Length 23 m; draft 3 m.

Type: Tug. MMSI: 367022790.

Date/timePositionNaut miles runAvg speedWind from/ knotsBaromVisibWave heightAir tempDewpointWater temp
2017-Jan-20 17:08N 40°33' W 074°15'0 0.0
2017-Jan-20 12:33N 40°33' W 074°15'0 0.1
2017-Jan-20 11:33N 40°33' W 074°15'0 0.0
2017-Jan-20 10:32N 40°33' W 074°15'0 0.0
2017-Jan-20 09:32N 40°33' W 074°15'0 0.0
2017-Jan-20 08:33N 40°33' W 074°15'0 0.0
2017-Jan-20 07:33N 40°33' W 074°15'0 0.0
2017-Jan-20 06:32N 40°33' W 074°15'0 0.0
2017-Jan-20 05:33N 40°33' W 074°15'0 0.0
2017-Jan-20 04:32N 40°33' W 074°15'0 0.0
2017-Jan-20 03:33N 40°33' W 074°15'0 0.0
2017-Jan-20 02:33N 40°33' W 074°15'5 4.9
2017-Jan-20 01:33N 40°37' W 074°12'7 7.3
2017-Jan-20 00:34N 40°40' W 074°03'1010.0
2017-Jan-19 23:33N 40°48' W 073°55'7 0.3
2017-Jan-19 03:24N 40°50' W 073°46'5 6.3
2017-Jan-19 02:33N 40°48' W 073°52'5 5.5
2017-Jan-19 01:33N 40°45' W 073°58'5 5.0
2017-Jan-19 00:34N 40°41' W 074°02'6 6.0
2017-Jan-18 23:34N 40°39' W 074°10'5 4.6
2017-Jan-18 22:33N 40°35' W 074°13'2 2.5
2017-Jan-18 21:33N 40°33' W 074°15'0 0.0
2017-Jan-18 17:21N 40°33' W 074°15'0 0.0
2017-Jan-18 10:33N 40°33' W 074°15'0 0.0
2017-Jan-18 09:33N 40°33' W 074°15'0 0.0
2017-Jan-18 08:33N 40°33' W 074°15'0 0.0
2017-Jan-18 07:33N 40°33' W 074°15'0 0.0
2017-Jan-18 06:33N 40°33' W 074°15'0 0.0
2017-Jan-18 05:33N 40°33' W 074°15'1 0.7
2017-Jan-18 04:12N 40°32' W 074°15'1 1.1
2017-Jan-18 03:19N 40°33' W 074°15'0 0.0
2017-Jan-18 00:33N 40°33' W 074°15'0 0.0
2017-Jan-17 23:32N 40°33' W 074°15'0 0.0
2017-Jan-17 13:28N 40°33' W 074°15'0 0.0
2017-Jan-17 12:33N 40°33' W 074°15'0 0.0
2017-Jan-17 11:29N 40°33' W 074°15'0 0.0
2017-Jan-17 10:28N 40°33' W 074°15'0 0.0
2017-Jan-17 09:31N 40°33' W 074°15'0 0.4
2017-Jan-17 08:27N 40°33' W 074°15'7 7.4
2017-Jan-17 07:34N 40°39' W 074°11'7 6.9
2017-Jan-17 06:34N 40°40' W 074°03'8 7.8
2017-Jan-17 05:34N 40°48' W 073°59'7 7.3
2017-Jan-17 04:34N 40°54' W 073°55'6 0.4
2017-Jan-16 12:27N 41°00' W 073°53'5 5.1
2017-Jan-16 11:33N 40°56' W 073°55'4 4.0
2017-Jan-16 10:34N 40°52' W 073°56'4 3.5
2017-Jan-16 09:34N 40°49' W 073°58'4 3.9
2017-Jan-16 08:34N 40°45' W 074°01'5 4.9
2017-Jan-16 07:34N 40°41' W 074°03'6 6.2
2017-Jan-16 06:33N 40°39' W 074°10'6 5.3
2017-Jan-16 05:28N 40°33' W 074°13'1 1.4
2017-Jan-16 04:33N 40°33' W 074°15'0 0.0
2017-Jan-15 17:33N 40°33' W 074°15'4 2.9
2017-Jan-15 16:10N 40°36' W 074°12'3 5.1
2017-Jan-15 15:32N 40°39' W 074°09'2 2.2
2017-Jan-15 14:33N 40°39' W 074°07'0 0.0
2017-Jan-15 13:33N 40°39' W 074°07'0 0.0
2017-Jan-15 12:33N 40°39' W 074°07'0 0.0
2017-Jan-15 11:33N 40°39' W 074°07'0 0.0
2017-Jan-15 10:33N 40°39' W 074°07'0 0.0
2017-Jan-15 09:33N 40°39' W 074°07'0 0.0
2017-Jan-15 08:33N 40°39' W 074°07'0 0.0
2017-Jan-15 07:33N 40°39' W 074°07'0 0.0
2017-Jan-15 06:33N 40°39' W 074°07'0 0.0
2017-Jan-15 05:33N 40°39' W 074°07'0 0.0
2017-Jan-15 04:33N 40°39' W 074°07'0 0.0
2017-Jan-15 03:33N 40°39' W 074°07'3 3.0
2017-Jan-15 02:33N 40°39' W 074°10'5 5.0
2017-Jan-15 01:31N 40°34' W 074°13'2 0.2
2017-Jan-14 14:33N 40°32' W 074°15'1 0.5
2017-Jan-14 13:32N 40°33' W 074°15'0 0.0
2017-Jan-14 12:29N 40°33' W 074°15'0 0.0
2017-Jan-14 11:33N 40°33' W 074°15'3 3.5
2017-Jan-14 10:33N 40°36' W 074°12'5 5.2
2017-Jan-14 09:33N 40°39' W 074°07'9 8.8
2017-Jan-14 08:33N 40°45' W 073°58'8 8.3
2017-Jan-14 07:33N 40°48' W 073°48'5 0.2
2017-Jan-13 04:06N 40°52' W 073°44'4 6.3
2017-Jan-13 03:29N 40°49' W 073°47'5 5.6
2017-Jan-13 02:30N 40°48' W 073°54'6 6.5
2017-Jan-13 01:33N 40°43' W 073°58'5 5.3
2017-Jan-13 00:33N 40°39' W 074°03'0 0.4
2017-Jan-12 23:33N 40°40' W 074°03'1 1.3
2017-Jan-12 22:33N 40°40' W 074°02'1 1.2
2017-Jan-12 21:33N 40°40' W 074°00'0 0.0
2017-Jan-12 20:33N 40°40' W 074°00'0 0.0
2017-Jan-12 19:33N 40°40' W 074°00'6 6.4
2017-Jan-12 18:33N 40°39' W 074°08'3 2.8
2017-Jan-12 17:33N 40°38' W 074°12'0 0.0
2017-Jan-12 16:33N 40°38' W 074°12'0 0.0
2017-Jan-12 15:33N 40°38' W 074°12'0 0.0
2017-Jan-12 14:33N 40°38' W 074°12'4 4.2
2017-Jan-12 13:32N 40°39' W 074°06'5 4.6
2017-Jan-12 12:33N 40°40' W 074°00'2 2.2
2017-Jan-12 11:33N 40°39' W 074°03'4 3.9
2017-Jan-12 10:33N 40°39' W 074°08'4 3.9
2017-Jan-12 09:30N 40°36' W 074°12'4 3.8
2017-Jan-12 08:31N 40°33' W 074°15'0 0.4
2017-Jan-12 07:33N 40°33' W 074°15'0 0.0
2017-Jan-12 06:33N 40°33' W 074°15'0 0.0
2017-Jan-12 05:33N 40°33' W 074°15'0 0.0
2017-Jan-12 04:33N 40°33' W 074°15'0 0.0
2017-Jan-12 03:33N 40°33' W 074°15'0 0.0
2017-Jan-12 02:33N 40°33' W 074°15'0 0.0
2017-Jan-12 01:33N 40°33' W 074°15'0 0.0
2017-Jan-11 16:31N 40°33' W 074°15'4 3.3
2017-Jan-11 15:14N 40°36' W 074°12'4 6.0
2017-Jan-11 14:33N 40°39' W 074°08'5 5.0
2017-Jan-11 13:33N 40°41' W 074°02'6 6.1
2017-Jan-11 12:33N 40°46' W 073°57'4 4.0
2017-Jan-11 11:33N 40°48' W 073°53'5 4.4
2017-Jan-11 10:30N 40°49' W 073°47'4 3.8
2017-Jan-11 09:29N 40°52' W 073°44'  

Dump ship's entire track history